Time;durP1;ratioP1;P1;durP2;ratioP2;P2;SDS_P1;SDS_P2;PMS_P1;PMS_P2;Temp;Humidity;BMP_temperature;BMP_pressure;BME280_temperature;BME280_humidity;BME280_pressure;Samples;Min_cycle;Max_cycle;Signal;HPM_P1;HPM_P2
2022/08/01 00:00:35;;;;;;;61.40;58.17;;;18.90;99.90;;;;;;5011095;28;20179;-69
2022/08/01 00:03:01;;;;;;;59.20;56.03;;;18.80;99.90;;;;;;4993648;28;20183;-66
2022/08/01 00:05:26;;;;;;;47.38;44.83;;;18.80;99.90;;;;;;5010874;28;20731;-66
2022/08/01 00:07:52;;;;;;;49.55;46.83;;;18.80;99.90;;;;;;5010198;28;20203;-66
2022/08/01 00:10:19;;;;;;;55.67;52.57;;;18.80;99.90;;;;;;5011147;28;20198;-67
2022/08/01 00:12:45;;;;;;;51.10;48.40;;;18.80;99.90;;;;;;5010916;28;20194;-68
2022/08/01 00:15:13;;;;;;;52.00;49.17;;;18.80;99.90;;;;;;5011204;28;20270;-67
2022/08/01 00:17:39;;;;;;;46.78;44.40;;;18.80;99.90;;;;;;5009910;28;20219;-66
2022/08/01 00:20:08;;;;;;;51.60;48.80;;;18.80;99.90;;;;;;5010603;28;20184;-67
2022/08/01 00:22:35;;;;;;;54.70;51.60;;;18.70;99.90;;;;;;5010897;28;20680;-67
2022/08/01 00:25:03;;;;;;;53.57;50.73;;;18.60;99.90;;;;;;5011041;28;20266;-68
2022/08/01 00:27:29;;;;;;;52.53;49.57;;;18.60;99.90;;;;;;5010134;28;20215;-67
2022/08/01 00:29:55;;;;;;;57.70;54.13;;;18.50;99.90;;;;;;4993577;28;20192;-66
2022/08/01 00:32:21;;;;;;;57.43;54.47;;;18.50;99.90;;;;;;5010878;28;20249;-66
2022/08/01 00:34:47;;;;;;;70.20;66.43;;;18.40;99.90;;;;;;5010592;28;20195;-67
2022/08/01 00:37:13;;;;;;;96.93;91.67;;;18.40;99.90;;;;;;5013622;28;20215;-67
2022/08/01 00:39:39;;;;;;;105.03;99.67;;;18.30;99.90;;;;;;5013876;28;20671;-66
2022/08/01 00:42:10;;;;;;;162.87;154.30;;;18.30;99.90;;;;;;5014238;28;20286;-68
2022/08/01 00:44:36;;;;;;;184.73;175.30;;;18.20;99.90;;;;;;5014301;28;20194;-67
2022/08/01 00:47:03;;;;;;;179.53;170.40;;;18.10;99.90;;;;;;5013225;28;20203;-67
2022/08/01 00:49:29;;;;;;;200.17;189.83;;;18.10;99.90;;;;;;4996709;28;20184;-67
2022/08/01 00:51:56;;;;;;;181.47;172.27;;;18.10;99.90;;;;;;5014229;28;20603;-68
2022/08/01 00:54:23;;;;;;;215.50;204.60;;;18.10;99.90;;;;;;5014620;28;20287;-66
2022/08/01 00:56:50;;;;;;;225.67;214.27;;;18.10;99.90;;;;;;4995488;28;20199;-67
2022/08/01 00:59:17;;;;;;;201.77;191.77;;;18.00;99.90;;;;;;5013788;28;20183;-67
2022/08/01 01:01:43;;;;;;;149.87;142.20;;;18.00;99.90;;;;;;5013543;28;20171;-68
2022/08/01 01:04:09;;;;;;;168.50;160.03;;;18.00;99.90;;;;;;5013722;28;20180;-67
2022/08/01 01:07:02;;;;;;;145.57;138.17;;;18.00;99.90;;;;;;5013189;28;20245;-67
2022/08/01 01:09:32;;;;;;;124.47;118.33;;;18.10;99.90;;;;;;5013611;28;20194;-68
2022/08/01 01:12:30;;;;;;;166.47;158.13;;;18.00;99.90;;;;;;5013863;28;20549;-67
2022/08/01 01:15:20;;;;;;;142.00;135.03;;;17.90;99.90;;;;;;5013663;28;20194;-67
2022/08/01 01:17:50;;;;;;;131.77;125.07;;;17.80;99.90;;;;;;5029690;23;20228;-73
2022/08/01 01:20:17;;;;;;;111.33;105.53;;;17.80;99.90;;;;;;4976844;28;20183;-73
2022/08/01 01:22:55;;;;;;;62.77;59.53;;;17.70;99.90;;;;;;4976438;28;20211;-73
2022/08/01 01:25:36;;;;;;;65.30;62.03;;;17.60;99.90;;;;;;4993877;28;20204;-73
2022/08/01 01:28:27;;;;;;;40.63;38.60;;;17.60;99.90;;;;;;4982960;28;20206;-73
2022/08/01 01:30:56;;;;;;;33.30;31.50;;;17.50;99.90;;;;;;5024545;28;20189;-73
2022/08/01 01:33:25;;;;;;;27.73;26.13;;;17.50;99.90;;;;;;5033010;28;20576;-73
2022/08/01 01:35:58;;;;;;;24.40;22.60;;;17.50;99.90;;;;;;5032861;28;20706;-73
2022/08/01 01:38:29;;;;;;;25.57;24.17;;;17.50;99.90;;;;;;5031983;28;20575;-72
2022/08/01 01:40:57;;;;;;;23.27;21.93;;;17.60;99.90;;;;;;5032993;28;20186;-73
2022/08/01 01:43:24;;;;;;;28.63;27.07;;;17.60;99.90;;;;;;5015185;28;20202;-73
2022/08/01 01:45:51;;;;;;;28.07;26.67;;;17.50;99.90;;;;;;5014203;28;20185;-73
2022/08/01 01:48:19;;;;;;;23.30;22.00;;;17.50;99.90;;;;;;5013397;28;20210;-72
2022/08/01 01:50:47;;;;;;;25.00;23.77;;;17.50;99.90;;;;;;5012945;28;20661;-73
2022/08/01 01:53:17;;;;;;;25.70;24.33;;;17.50;99.90;;;;;;5012839;28;20187;-73
2022/08/01 01:55:46;;;;;;;25.97;24.67;;;17.50;99.90;;;;;;4995512;28;20576;-73
2022/08/01 01:58:14;;;;;;;24.90;23.40;;;17.50;99.90;;;;;;5014434;28;20198;-73
2022/08/01 02:00:44;;;;;;;26.77;25.47;;;17.40;99.90;;;;;;4995652;28;20187;-73
2022/08/01 02:03:11;;;;;;;32.10;30.27;;;17.40;99.90;;;;;;5028905;28;20179;-72
2022/08/01 02:05:39;;;;;;;37.47;35.57;;;17.40;99.90;;;;;;5032648;28;20179;-73
2022/08/01 02:08:07;;;;;;;42.50;40.40;;;17.30;99.90;;;;;;5031464;28;20195;-73
2022/08/01 02:10:34;;;;;;;44.40;42.10;;;17.30;99.90;;;;;;5032526;28;20266;-73
2022/08/01 02:13:04;;;;;;;48.50;46.07;;;17.20;99.90;;;;;;5029047;28;20175;-73
2022/08/01 02:15:32;;;;;;;46.50;44.13;;;17.20;99.90;;;;;;5014687;28;20190;-72
2022/08/01 02:18:00;;;;;;;52.07;49.37;;;17.20;99.90;;;;;;5031276;28;20246;-73
2022/08/01 02:20:29;;;;;;;55.27;52.43;;;17.20;99.90;;;;;;5032340;28;20245;-72
2022/08/01 02:23:10;;;;;;;58.23;55.33;;;17.20;99.90;;;;;;5014514;28;20558;-73
2022/08/01 02:25:46;;;;;;;56.57;53.57;;;17.20;99.90;;;;;;5032315;28;20225;-73
2022/08/01 02:28:17;;;;;;;63.03;59.73;;;17.20;99.90;;;;;;5014054;28;20613;-73
2022/08/01 02:30:48;;;;;;;54.73;51.80;;;17.10;99.90;;;;;;5012464;28;20234;-73
2022/08/01 02:33:20;;;;;;;52.23;49.47;;;17.10;99.90;;;;;;5012354;28;20275;-73
2022/08/01 02:35:51;;;;;;;39.80;37.43;;;17.00;99.90;;;;;;4996754;28;20191;-73
2022/08/01 02:38:20;;;;;;;31.20;29.40;;;17.00;99.90;;;;;;5014791;28;20195;-73
2022/08/01 02:40:48;;;;;;;23.87;22.63;;;17.00;99.90;;;;;;5012176;28;20175;-73
2022/08/01 02:43:20;;;;;;;28.63;27.17;;;17.00;99.90;;;;;;4994560;28;20274;-73
2022/08/01 02:45:51;;;;;;;71.53;67.90;;;17.00;99.90;;;;;;4993558;28;20403;-72
2022/08/01 02:48:19;;;;;;;185.77;176.73;;;17.00;99.90;;;;;;5010593;28;20200;-72
2022/08/01 02:50:49;;;;;;;105.67;100.10;;;17.00;99.90;;;;;;5012684;28;20550;-72
2022/08/01 02:53:19;;;;;;;44.17;41.93;;;17.00;99.90;;;;;;4991927;28;20653;-71
2022/08/01 02:55:47;;;;;;;20.40;19.23;;;16.90;99.90;;;;;;4992090;28;20597;-72
2022/08/01 02:58:16;;;;;;;23.50;22.00;;;16.80;99.90;;;;;;4990148;28;20197;-72
2022/08/01 03:00:44;;;;;;;26.50;25.10;;;16.80;99.90;;;;;;4993114;28;20180;-73
2022/08/01 03:03:12;;;;;;;32.80;30.93;;;16.80;99.90;;;;;;5031223;28;20179;-73
2022/08/01 03:05:42;;;;;;;34.77;32.73;;;16.70;99.90;;;;;;5013612;28;20598;-73
2022/08/01 03:08:08;;;;;;;29.67;28.10;;;16.70;99.90;;;;;;5030438;28;20559;-73
2022/08/01 03:10:37;;;;;;;35.33;33.47;;;16.70;99.90;;;;;;5031293;28;20648;-73
2022/08/01 03:13:05;;;;;;;44.07;41.70;;;16.60;99.90;;;;;;5012118;28;20270;-71
2022/08/01 03:15:35;;;;;;;66.43;62.93;;;16.50;99.90;;;;;;5031070;28;20244;-72
2022/08/01 03:18:04;;;;;;;74.73;70.80;;;16.50;99.90;;;;;;5030088;28;20238;-72
2022/08/01 03:20:32;;;;;;;77.60;73.73;;;16.50;99.90;;;;;;5030860;28;20186;-72
2022/08/01 03:23:09;;;;;;;82.13;77.83;;;16.40;99.90;;;;;;5012024;28;20176;-72
2022/08/01 03:25:39;;;;;;;75.57;71.77;;;16.40;99.90;;;;;;4993852;28;20215;-72
2022/08/01 03:28:07;;;;;;;78.57;74.57;;;16.40;99.90;;;;;;4992098;28;20576;-72
2022/08/01 03:30:36;;;;;;;66.77;63.43;;;16.40;99.90;;;;;;5011076;28;20663;-72
2022/08/01 03:33:03;;;;;;;79.23;75.33;;;16.40;99.90;;;;;;5030090;28;20175;-71
2022/08/01 03:35:33;;;;;;;66.37;62.97;;;16.30;99.90;;;;;;5013893;28;20194;-72
2022/08/01 03:38:00;;;;;;;50.80;48.07;;;16.30;99.90;;;;;;5030114;28;20206;-72
2022/08/01 03:40:38;;;;;;;37.97;36.00;;;16.30;99.90;;;;;;5005807;28;20243;-73
2022/08/01 03:43:11;;;;;;;68.57;64.83;;;16.30;99.90;;;;;;4994897;28;20246;-73
2022/08/01 03:45:40;;;;;;;123.83;116.90;;;16.20;99.90;;;;;;4990096;28;20231;-72
2022/08/01 03:48:12;;;;;;;130.53;123.23;;;16.30;99.90;;;;;;4988442;28;20203;-73
2022/08/01 03:50:42;;;;;;;168.63;159.63;;;16.30;99.90;;;;;;4991263;28;20274;-73
2022/08/01 03:53:10;;;;;;;118.50;112.03;;;16.40;99.90;;;;;;5029496;28;20186;-72
2022/08/01 03:55:39;;;;;;;86.20;81.63;;;16.40;99.90;;;;;;5029238;28;20597;-72
2022/08/01 03:58:06;;;;;;;61.77;58.30;;;16.30;99.90;;;;;;5012087;28;20203;-72
2022/08/01 04:00:32;;;;;;;77.63;73.53;;;16.30;99.90;;;;;;5012754;28;20171;-73
2022/08/01 04:02:59;;;;;;;125.37;118.90;;;16.20;99.90;;;;;;5011835;28;20292;-72
2022/08/01 04:05:25;;;;;;;111.00;104.60;;;16.20;99.90;;;;;;4992848;28;20179;-72
2022/08/01 04:07:59;;;;;;;105.47;99.70;;;16.20;99.90;;;;;;5009746;28;20203;-71
2022/08/01 04:10:28;;;;;;;119.50;113.50;;;16.20;99.90;;;;;;4995552;28;20194;-72
2022/08/01 04:12:54;;;;;;;129.20;122.40;;;16.20;99.90;;;;;;5013288;28;20206;-72
2022/08/01 04:15:21;;;;;;;155.93;147.73;;;16.20;99.90;;;;;;5022716;28;20196;-72
2022/08/01 04:17:47;;;;;;;164.37;155.57;;;16.10;99.90;;;;;;5012032;28;20250;-72
2022/08/01 04:20:13;;;;;;;152.10;144.10;;;16.10;99.90;;;;;;5013972;28;20315;-72
2022/08/01 04:22:40;;;;;;;158.73;150.67;;;16.10;99.90;;;;;;4996845;28;20258;-72
2022/08/01 04:25:21;;;;;;;147.77;140.23;;;16.20;99.90;;;;;;5013315;28;20175;-72
2022/08/01 04:27:50;;;;;;;126.03;119.67;;;16.20;99.90;;;;;;5013276;28;20692;-72
2022/08/01 04:30:25;;;;;;;136.07;128.97;;;16.20;99.90;;;;;;5014149;28;20287;-72
2022/08/01 04:32:55;;;;;;;146.83;139.13;;;16.30;99.90;;;;;;5028478;28;20663;-72
2022/08/01 04:35:23;;;;;;;140.10;132.73;;;16.30;99.90;;;;;;5016285;28;20190;-71
2022/08/01 04:37:50;;;;;;;95.90;91.10;;;16.40;99.90;;;;;;5029798;28;20774;-72
2022/08/01 04:40:18;;;;;;;97.17;92.03;;;16.50;99.90;;;;;;5013902;28;20179;-72
2022/08/01 04:42:45;;;;;;;93.23;88.43;;;16.60;99.90;;;;;;5016859;28;20176;-72
2022/08/01 04:45:12;;;;;;;141.07;133.87;;;16.70;99.90;;;;;;5014157;28;20597;-72
2022/08/01 04:47:40;;;;;;;190.93;181.13;;;16.90;99.90;;;;;;5012765;28;20587;-70
2022/08/01 04:50:12;;;;;;;185.00;175.57;;;17.00;99.90;;;;;;5014958;28;20303;-70
2022/08/01 04:52:41;;;;;;;65.53;61.93;;;17.10;99.90;;;;;;5028367;28;20193;-71
2022/08/01 04:55:09;;;;;;;35.50;33.03;;;17.20;99.90;;;;;;5033627;28;20187;-71
2022/08/01 04:57:37;;;;;;;30.07;28.33;;;17.20;99.90;;;;;;5032360;28;20222;-71
2022/08/01 05:00:03;;;;;;;35.23;33.27;;;17.20;99.90;;;;;;5033645;28;20236;-72
2022/08/01 05:02:29;;;;;;;78.03;73.93;;;17.40;99.90;;;;;;5003572;28;20528;-71
2022/08/01 05:04:55;;;;;;;85.00;80.67;;;17.60;99.90;;;;;;5013551;28;20286;-72
2022/08/01 05:07:21;;;;;;;48.60;45.93;;;17.80;99.90;;;;;;5012859;28;20215;-74
2022/08/01 05:09:47;;;;;;;13.97;13.03;;;18.10;99.90;;;;;;5013665;28;20183;-72
2022/08/01 05:12:13;;;;;;;40.83;38.67;;;18.40;99.90;;;;;;5022767;28;20185;-73
2022/08/01 05:14:39;;;;;;;58.43;55.07;;;18.80;99.90;;;;;;5033788;28;20191;-73
2022/08/01 05:17:07;;;;;;;24.77;23.47;;;19.20;99.90;;;;;;5015029;28;20299;-73
2022/08/01 05:19:39;;;;;;;53.58;50.90;;;19.90;99.90;;;;;;5033094;28;20865;-73
2022/08/01 05:22:07;;;;;;;20.33;19.02;;;20.60;99.90;;;;;;5024197;28;20227;-74
2022/08/01 05:24:38;;;;;;;10.20;9.60;;;21.10;99.90;;;;;;5013410;28;20672;-73
2022/08/01 05:27:04;;;;;;;8.15;7.65;;;21.60;99.90;;;;;;5012616;28;20241;-72
2022/08/01 05:29:31;;;;;;;8.40;7.53;;;22.10;99.90;;;;;;5013100;28;20214;-73
2022/08/01 05:31:57;;;;;;;6.93;6.43;;;22.30;99.90;;;;;;4996397;28;20192;-72
2022/08/01 05:34:23;;;;;;;7.68;7.07;;;22.00;99.90;;;;;;5011663;28;20188;-73
2022/08/01 05:36:49;;;;;;;7.38;6.93;;;22.00;99.90;;;;;;5012068;28;20204;-71
2022/08/01 05:39:15;;;;;;;15.50;8.10;;;21.90;99.90;;;;;;5008396;28;20199;-73
2022/08/01 05:41:41;;;;;;;19.10;7.65;;;22.00;99.90;;;;;;5025665;28;20226;-73
2022/08/01 05:44:07;;;;;;;21.00;12.05;;;22.20;99.90;;;;;;5012728;28;20183;-73
2022/08/01 05:46:34;;;;;;;18.35;16.75;;;22.50;99.90;;;;;;5012646;28;20748;-72
2022/08/01 05:49:02;;;;;;;52.58;49.65;;;23.10;99.90;;;;;;5011107;28;20212;-73
2022/08/01 05:51:28;;;;;;;28.35;26.85;;;23.80;99.90;;;;;;5012654;28;20188;-72
2022/08/01 05:53:54;;;;;;;10.90;10.27;;;24.10;99.90;;;;;;5026056;28;20245;-74
2022/08/01 05:56:21;;;;;;;9.27;8.68;;;24.40;99.90;;;;;;5014125;28;20229;-75
2022/08/01 05:58:47;;;;;;;13.00;12.35;;;24.80;99.90;;;;;;5031909;28;20575;-74
2022/08/01 06:01:13;;;;;;;19.02;18.02;;;24.90;99.90;;;;;;5001102;28;20194;-73
2022/08/01 06:03:39;;;;;;;14.98;14.23;;;25.00;99.90;;;;;;5022382;28;20225;-74
2022/08/01 06:06:05;;;;;;;24.13;22.77;;;24.90;99.90;;;;;;5031418;28;20187;-73
2022/08/01 06:08:31;;;;;;;23.35;21.98;;;25.10;99.90;;;;;;5031375;28;20737;-73
2022/08/01 06:10:57;;;;;;;19.40;18.50;;;25.50;99.90;;;;;;5033415;28;20183;-72
2022/08/01 06:13:23;;;;;;;23.05;21.88;;;25.60;99.90;;;;;;5023476;28;20187;-70
2022/08/01 06:15:49;;;;;;;21.75;20.30;;;25.20;99.90;;;;;;5012643;28;20187;-72
2022/08/01 06:18:15;;;;;;;19.92;18.88;;;24.60;99.90;;;;;;5011454;28;20230;-73
2022/08/01 06:20:43;;;;;;;20.38;19.17;;;24.70;99.90;;;;;;5012432;28;20206;-72
2022/08/01 06:23:09;;;;;;;24.27;22.98;;;25.30;99.90;;;;;;5013386;28;20182;-71
2022/08/01 06:25:35;;;;;;;27.20;25.73;;;25.80;99.90;;;;;;5012268;28;20183;-74
2022/08/01 06:28:01;;;;;;;10.77;10.02;;;26.20;99.90;;;;;;5011659;28;20203;-74
2022/08/01 06:30:27;;;;;;;6.70;6.30;;;26.50;99.90;;;;;;5012374;28;20187;-74
2022/08/01 06:32:55;;;;;;;4.75;4.38;;;26.60;99.90;;;;;;5015539;28;20710;-74
2022/08/01 06:35:21;;;;;;;6.70;4.43;;;27.00;99.90;;;;;;5032082;28;20667;-74
2022/08/01 06:37:48;;;;;;;6.25;5.75;;;27.20;99.90;;;;;;5031014;28;20214;-73
2022/08/01 06:40:14;;;;;;;11.82;7.88;;;27.70;99.90;;;;;;5032029;28;20560;-74
2022/08/01 06:42:40;;;;;;;19.02;17.92;;;28.00;99.20;;;;;;5011461;28;20266;-73
2022/08/01 06:45:08;;;;;;;26.83;25.00;;;28.20;98.70;;;;;;5012199;28;20191;-73
2022/08/01 06:47:34;;;;;;;17.65;16.60;;;28.50;98.00;;;;;;4996192;28;20207;-73
2022/08/01 06:50:00;;;;;;;9.10;8.48;;;28.60;97.40;;;;;;5011697;28;20192;-73
2022/08/01 06:52:26;;;;;;;5.45;5.05;;;28.80;96.60;;;;;;5020383;28;20179;-73
2022/08/01 06:54:52;;;;;;;6.05;5.68;;;29.30;96.10;;;;;;5028204;28;20179;-73
2022/08/01 06:57:18;;;;;;;7.03;5.82;;;29.50;94.60;;;;;;5030521;28;20207;-75
2022/08/01 06:59:44;;;;;;;8.15;7.57;;;29.50;94.60;;;;;;5003507;28;20648;-72
2022/08/01 07:02:10;;;;;;;7.90;7.25;;;29.70;94.30;;;;;;5020696;28;20186;-68
2022/08/01 07:04:36;;;;;;;8.32;7.80;;;29.50;94.40;;;;;;5025378;28;20253;-69
2022/08/01 07:07:03;;;;;;;7.32;6.68;;;29.60;94.00;;;;;;5011354;28;20188;-68
2022/08/01 07:09:28;;;;;;;8.05;7.45;;;29.40;94.10;;;;;;5012196;28;20204;-69
2022/08/01 07:11:55;;;;;;;9.65;9.15;;;29.60;93.70;;;;;;5012031;28;20563;-72
2022/08/01 07:14:21;;;;;;;9.80;9.10;;;29.90;93.60;;;;;;5002204;28;20188;-72
2022/08/01 07:16:47;;;;;;;9.18;8.45;;;29.90;93.30;;;;;;4999129;28;20203;-73
2022/08/01 07:19:13;;;;;;;8.73;8.23;;;29.70;92.80;;;;;;5031686;23;20261;-71
2022/08/01 07:21:40;;;;;;;6.85;6.50;;;29.90;92.40;;;;;;4993638;28;20183;-70
2022/08/01 07:24:07;;;;;;;7.28;6.88;;;30.40;92.00;;;;;;5011120;28;20222;-70
2022/08/01 07:26:33;;;;;;;6.97;6.60;;;30.70;91.70;;;;;;5010844;28;20270;-71
2022/08/01 07:28:59;;;;;;;7.20;6.80;;;30.90;90.50;;;;;;5009374;28;20640;-70
2022/08/01 07:31:25;;;;;;;7.53;7.15;;;31.00;90.80;;;;;;4993268;28;20180;-71
2022/08/01 07:33:51;;;;;;;9.52;8.85;;;31.10;90.30;;;;;;4989608;28;20192;-71
2022/08/01 07:36:17;;;;;;;24.77;23.45;;;31.30;89.20;;;;;;5006841;28;20607;-72
2022/08/01 07:38:44;;;;;;;16.15;15.25;;;31.30;87.80;;;;;;5007928;28;20203;-73
2022/08/01 07:41:10;;;;;;;24.50;23.13;;;31.20;89.60;;;;;;4993616;28;20664;-73
2022/08/01 07:43:36;;;;;;;28.90;27.30;;;31.50;88.40;;;;;;4993491;28;20176;-73
2022/08/01 07:46:03;;;;;;;28.05;26.63;;;31.40;87.90;;;;;;5015223;28;20652;-73
2022/08/01 07:48:29;;;;;;;16.50;15.65;;;31.00;88.30;;;;;;5014804;28;20204;-73
2022/08/01 07:50:55;;;;;;;6.80;6.38;;;30.30;90.10;;;;;;5015225;28;20182;-73
2022/08/01 07:53:21;;;;;;;8.77;8.27;;;30.10;90.70;;;;;;5015068;28;20331;-73
2022/08/01 07:55:47;;;;;;;24.38;23.08;;;29.60;91.40;;;;;;5014710;28;20312;-73
2022/08/01 07:58:13;;;;;;;29.35;27.85;;;28.50;93.00;;;;;;4996518;28;20231;-73
2022/08/01 08:00:40;;;;;;;30.05;28.65;;;28.10;93.20;;;;;;5014887;28;20560;-73
2022/08/01 08:03:06;;;;;;;13.80;13.10;;;28.00;93.90;;;;;;4997396;28;20250;-73
2022/08/01 08:05:35;;;;;;;11.43;10.68;;;27.80;94.50;;;;;;4997189;28;20257;-73
2022/08/01 08:08:06;;;;;;;13.45;12.80;;;28.20;94.00;;;;;;4996841;28;20225;-73
2022/08/01 08:10:33;;;;;;;17.45;16.65;;;28.60;92.80;;;;;;5014657;28;20191;-72
2022/08/01 08:13:01;;;;;;;23.33;22.13;;;28.30;93.90;;;;;;5018142;28;20187;-78
2022/08/01 08:15:27;;;;;;;32.65;30.95;;;28.20;94.40;;;;;;4996199;28;20206;-76
2022/08/01 08:17:53;;;;;;;32.85;31.27;;;28.10;94.30;;;;;;5025848;28;20631;-76
2022/08/01 08:20:24;;;;;;;21.58;20.48;;;28.40;94.70;;;;;;5016484;28;20221;-79
2022/08/01 08:22:51;;;;;;;16.42;15.45;;;28.60;93.30;;;;;;5022150;28;20193;-77
2022/08/01 08:25:18;;;;;;;13.45;12.65;;;29.20;93.30;;;;;;5026497;28;20195;-77
2022/08/01 08:27:45;;;;;;;18.65;17.77;;;28.50;93.30;;;;;;4996681;28;20241;-77
2022/08/01 08:30:12;;;;;;;16.38;15.55;;;28.40;94.00;;;;;;5015347;28;20684;-76
2022/08/01 08:32:39;;;;;;;12.65;11.85;;;28.80;93.50;;;;;;4998394;28;20183;-78
2022/08/01 08:35:06;;;;;;;12.57;11.73;;;28.70;93.00;;;;;;5012722;28;20195;-77
2022/08/01 08:37:32;;;;;;;14.05;13.23;;;28.70;93.00;;;;;;5003949;28;20230;-75
2022/08/01 08:39:58;;;;;;;23.48;22.23;;;28.90;92.40;;;;;;5019864;28;20863;-76
2022/08/01 08:42:24;;;;;;;23.45;22.30;;;29.40;92.00;;;;;;5016396;28;20183;-77
2022/08/01 08:44:50;;;;;;;23.55;22.33;;;29.30;91.70;;;;;;4998434;28;20235;-76
2022/08/01 08:47:17;;;;;;;21.50;20.48;;;28.80;92.90;;;;;;5015945;28;20179;-79
2022/08/01 08:49:44;;;;;;;17.70;16.90;;;28.90;93.10;;;;;;4999170;28;20550;-78
2022/08/01 08:52:10;;;;;;;15.57;14.88;;;28.80;93.20;;;;;;5017302;28;20211;-79
2022/08/01 08:54:38;;;;;;;18.15;17.25;;;28.90;93.10;;;;;;4998969;28;20234;-78
2022/08/01 08:57:04;;;;;;;28.05;26.67;;;29.60;92.40;;;;;;4999335;28;20207;-78
2022/08/01 08:59:31;;;;;;;22.95;21.60;;;29.30;91.90;;;;;;5014104;28;20203;-76
2022/08/01 09:01:58;;;;;;;23.92;22.77;;;28.30;92.80;;;;;;5007264;28;20192;-77
2022/08/01 09:04:24;;;;;;;36.47;34.55;;;27.90;93.70;;;;;;5001791;28;20556;-78
2022/08/01 09:06:52;;;;;;;37.25;35.28;;;27.90;93.80;;;;;;5014267;28;20190;-79
2022/08/01 09:09:18;;;;;;;17.88;16.90;;;28.00;93.50;;;;;;5014187;28;20203;-77
2022/08/01 09:11:44;;;;;;;7.07;6.47;;;27.40;94.10;;;;;;4998330;28;20650;-79
2022/08/01 09:14:16;;;;;;;8.27;7.82;;;27.20;95.00;;;;;;5013446;28;20179;-76
2022/08/01 09:16:44;;;;;;;8.85;8.18;;;26.90;95.20;;;;;;4997092;28;20216;-77
2022/08/01 09:19:19;;;;;;;5.32;5.03;;;26.40;96.10;;;;;;5014492;28;20208;-78
2022/08/01 09:21:59;;;;;;;7.38;6.97;;;27.00;96.30;;;;;;4996884;28;20656;-77
2022/08/01 09:24:27;;;;;;;8.02;7.63;;;28.10;94.40;;;;;;4998091;28;20558;-78
2022/08/01 09:26:53;;;;;;;12.82;11.80;;;28.90;93.60;;;;;;5014865;28;20258;-79
2022/08/01 09:29:29;;;;;;;32.22;30.70;;;29.40;92.80;;;;;;4997197;28;20215;-79
2022/08/01 09:31:56;;;;;;;30.70;29.30;;;29.10;93.20;;;;;;4998016;28;20191;-81
2022/08/01 09:34:27;;;;;;;39.75;37.78;;;28.60;92.50;;;;;;4998868;28;20275;-77
2022/08/01 09:36:58;;;;;;;36.72;34.85;;;28.10;93.30;;;;;;5018383;28;20230;-79
2022/08/01 09:39:54;;;;;;;21.63;20.25;;;27.90;93.20;;;;;;5001200;28;20199;-76
2022/08/01 09:42:20;;;;;;;7.20;6.80;;;27.50;93.50;;;;;;5000908;28;20188;-80
2022/08/01 09:44:47;;;;;;;8.95;8.45;;;26.90;94.40;;;;;;4998861;28;20206;-78
2022/08/01 09:47:13;;;;;;;9.43;8.68;;;27.00;95.40;;;;;;5015252;28;20196;-78
2022/08/01 09:49:41;;;;;;;11.50;10.77;;;27.40;94.80;;;;;;5005102;28;20310;-77
2022/08/01 09:52:26;;;;;;;19.13;18.13;;;28.40;93.60;;;;;;5023500;28;20191;-78
2022/08/01 09:54:59;;;;;;;29.02;27.63;;;29.10;92.00;;;;;;5016404;28;20195;-80
2022/08/01 09:57:26;;;;;;;27.30;25.83;;;28.70;92.10;;;;;;5007632;28;20216;-78
2022/08/01 09:59:57;;;;;;;25.08;23.73;;;28.70;92.20;;;;;;5003676;28;20291;-79
2022/08/01 10:02:37;;;;;;;12.90;12.23;;;28.90;92.30;;;;;;5016061;28;20603;-79
2022/08/01 10:05:06;;;;;;;23.00;21.83;;;29.30;91.90;;;;;;5013899;28;20285;-77
2022/08/01 10:07:32;;;;;;;31.70;30.08;;;29.70;90.40;;;;;;4995004;28;20266;-87
2022/08/01 10:10:14;;;;;;;22.73;21.67;;;29.50;90.80;;;;;;4999628;28;20226;-81
2022/08/01 10:12:41;;;;;;;26.42;25.15;;;28.80;90.70;;;;;;5014802;28;20608;-86
2022/08/01 10:15:09;;;;;;;23.42;22.27;;;29.10;91.70;;;;;;5015036;28;20180;-80
2022/08/01 10:17:38;;;;;;;25.10;23.73;;;28.90;91.10;;;;;;5001711;28;20587;-83
2022/08/01 10:20:05;;;;;;;20.30;19.23;;;28.90;91.10;;;;;;5016998;28;20261;-81
2022/08/01 10:22:33;;;;;;;12.60;11.88;;;28.40;91.00;;;;;;4995307;28;20180;-85
2022/08/01 10:25:03;;;;;;;27.55;25.95;;;28.00;92.10;;;;;;5000284;28;20168;-83
2022/08/01 10:27:32;;;;;;;19.35;18.25;;;27.90;92.70;;;;;;4997810;28;20270;-82
2022/08/01 10:30:03;;;;;;;14.68;13.77;;;28.40;92.00;;;;;;5016766;28;20294;-82
2022/08/01 10:32:31;;;;;;;14.10;13.30;;;28.90;90.90;;;;;;5018685;28;20191;-81
2022/08/01 10:34:58;;;;;;;16.88;15.95;;;28.70;90.60;;;;;;5002505;28;20190;-82
2022/08/01 10:37:25;;;;;;;18.98;18.00;;;28.90;90.20;;;;;;5001334;28;20207;-81
2022/08/01 10:39:53;;;;;;;21.83;20.65;;;29.00;90.40;;;;;;4998057;28;20555;-79
2022/08/01 10:42:19;;;;;;;14.70;13.50;;;28.40;90.60;;;;;;5000055;28;20543;-83
2022/08/01 10:44:47;;;;;;;22.40;21.20;;;28.60;91.10;;;;;;5001366;28;20199;-81
2022/08/01 10:47:17;;;;;;;28.77;27.38;;;29.50;90.40;;;;;;5019144;28;20242;-77
2022/08/01 10:50:01;;;;;;;15.40;14.50;;;30.80;88.60;;;;;;5011176;28;20199;-81
2022/08/01 10:52:27;;;;;;;16.58;15.35;;;31.00;83.70;;;;;;5022935;28;20186;-80
2022/08/01 10:55:09;;;;;;;19.70;18.73;;;29.90;86.50;;;;;;5021383;28;20191;-79
2022/08/01 10:57:47;;;;;;;30.15;28.42;;;29.30;88.30;;;;;;5021635;28;20270;-81
2022/08/01 11:00:18;;;;;;;33.42;31.58;;;29.00;89.00;;;;;;5037500;28;20327;-81
2022/08/01 11:03:01;;;;;;;26.75;25.10;;;29.10;90.30;;;;;;5041080;28;20187;-80
2022/08/01 11:05:30;;;;;;;22.20;21.10;;;29.70;86.90;;;;;;5019810;28;20178;-78
2022/08/01 11:08:00;;;;;;;22.98;21.77;;;29.60;86.60;;;;;;5021461;28;20201;-78
2022/08/01 11:10:39;;;;;;;17.38;16.38;;;29.60;85.90;;;;;;5005275;28;20198;-79
2022/08/01 11:13:07;;;;;;;13.75;12.93;;;30.30;84.40;;;;;;5010585;28;20247;-83
2022/08/01 11:15:35;;;;;;;10.18;9.73;;;31.20;82.80;;;;;;5014468;28;20188;-78
2022/08/01 11:18:24;;;;;;;6.32;5.82;;;31.30;81.80;;;;;;5016680;28;20207;-82
2022/08/01 11:20:58;;;;;;;9.05;8.43;;;31.80;80.10;;;;;;5029417;28;20222;-81
2022/08/01 11:23:27;;;;;;;26.83;25.52;;;32.30;80.10;;;;;;5007797;28;20191;-81
2022/08/01 11:25:53;;;;;;;31.25;29.77;;;32.40;78.00;;;;;;5008209;28;20608;-78
2022/08/01 11:28:37;;;;;;;25.73;24.42;;;32.40;78.00;;;;;;5028153;28;20211;-80
2022/08/01 11:31:10;;;;;;;31.13;29.48;;;31.70;77.70;;;;;;5018361;28;20200;-79
2022/08/01 11:33:42;;;;;;;30.25;28.55;;;31.70;78.70;;;;;;5023835;28;20207;-78
2022/08/01 11:36:15;;;;;;;27.33;25.95;;;31.50;78.90;;;;;;5022728;28;20187;-79
2022/08/01 11:38:45;;;;;;;31.52;29.85;;;31.50;78.20;;;;;;5022688;28;20231;-81
2022/08/01 11:41:17;;;;;;;33.70;32.05;;;31.80;77.80;;;;;;5016420;28;20217;-79
2022/08/01 11:44:10;;;;;;;25.23;23.88;;;31.30;78.00;;;;;;5004538;28;20647;-81
2022/08/01 11:46:56;;;;;;;14.85;13.93;;;30.90;79.40;;;;;;5007144;28;20187;-81
2022/08/01 11:49:36;;;;;;;7.65;7.18;;;30.70;79.90;;;;;;5006428;28;20211;-81
2022/08/01 11:52:16;;;;;;;8.90;8.30;;;30.70;81.40;;;;;;5007625;28;20191;-81
2022/08/01 11:54:53;;;;;;;9.20;8.70;;;31.20;80.70;;;;;;5013109;28;20247;-81
2022/08/01 11:57:33;;;;;;;25.38;23.73;;;32.40;78.50;;;;;;5006004;28;20250;-84
2022/08/01 12:00:00;;;;;;;14.48;13.68;;;33.90;73.10;;;;;;5000901;28;20195;-84
2022/08/01 12:02:28;;;;;;;23.38;22.17;;;32.80;73.40;;;;;;5021187;28;20184;-80
2022/08/01 12:05:05;;;;;;;23.70;22.55;;;31.80;75.00;;;;;;5003744;28;20266;-86
2022/08/01 12:07:33;;;;;;;32.55;30.95;;;31.00;76.50;;;;;;4986676;28;20184;-81
2022/08/01 12:10:06;;;;;;;16.50;15.73;;;30.60;78.60;;;;;;5004794;28;20200;-79
2022/08/01 12:12:42;;;;;;;20.92;19.80;;;30.70;78.70;;;;;;4988233;28;20184;-79
2022/08/01 12:15:09;;;;;;;17.10;16.30;;;31.30;77.80;;;;;;5005526;28;20732;-80
2022/08/01 12:17:36;;;;;;;20.77;19.52;;;31.20;77.80;;;;;;5005547;28;20211;-79
2022/08/01 12:20:05;;;;;;;26.95;25.55;;;31.50;76.70;;;;;;5002875;28;20221;-84
2022/08/01 12:22:32;;;;;;;24.55;23.15;;;31.70;76.20;;;;;;5004741;28;20199;-84
2022/08/01 12:25:08;;;;;;;23.75;22.50;;;31.30;77.00;;;;;;5006165;28;20222;-87
2022/08/01 12:27:35;;;;;;;16.33;15.32;;;30.80;77.10;;;;;;4985063;28;20195;-80
2022/08/01 12:30:04;;;;;;;13.02;12.43;;;30.50;77.70;;;;;;4989808;28;20259;-78
2022/08/01 12:32:33;;;;;;;9.55;9.10;;;30.50;78.10;;;;;;5012530;28;20190;-78
2022/08/01 12:35:08;;;;;;;11.07;10.48;;;30.70;77.90;;;;;;4996336;28;20185;-79
2022/08/01 12:37:38;;;;;;;29.00;27.63;;;31.90;75.30;;;;;;5006369;28;20646;-83